sensor_id;sensor_type;location;lat;lon;timestamp;P1;durP1;ratioP1;P2;durP2;ratioP2
50605;SDS011;36557;53.572;10.170;2024-03-08T00:00:05;17.92;;;9.88;;
50605;SDS011;36557;53.572;10.170;2024-03-08T00:02:40;19.55;;;9.95;;
50605;SDS011;36557;53.572;10.170;2024-03-08T00:05:07;17.60;;;9.45;;
50605;SDS011;36557;53.572;10.170;2024-03-08T00:07:34;19.80;;;9.88;;
50605;SDS011;36557;53.572;10.170;2024-03-08T00:10:01;18.73;;;10.02;;
50605;SDS011;36557;53.572;10.170;2024-03-08T00:12:27;18.80;;;9.60;;
50605;SDS011;36557;53.572;10.170;2024-03-08T00:14:53;17.13;;;9.38;;
50605;SDS011;36557;53.572;10.170;2024-03-08T00:17:20;17.55;;;9.65;;
50605;SDS011;36557;53.572;10.170;2024-03-08T00:19:48;17.77;;;9.77;;
50605;SDS011;36557;53.572;10.170;2024-03-08T00:22:15;17.52;;;9.73;;
50605;SDS011;36557;53.572;10.170;2024-03-08T00:24:41;23.10;;;9.75;;
50605;SDS011;36557;53.572;10.170;2024-03-08T00:27:07;18.35;;;9.90;;
50605;SDS011;36557;53.572;10.170;2024-03-08T00:29:34;17.77;;;9.77;;
50605;SDS011;36557;53.572;10.170;2024-03-08T00:32:00;15.43;;;7.95;;
50605;SDS011;36557;53.572;10.170;2024-03-08T00:34:26;17.10;;;7.30;;
50605;SDS011;36557;53.572;10.170;2024-03-08T00:36:52;16.48;;;7.60;;
50605;SDS011;36557;53.572;10.170;2024-03-08T00:39:18;15.18;;;7.65;;
50605;SDS011;36557;53.572;10.170;2024-03-08T00:41:46;16.90;;;7.63;;
50605;SDS011;36557;53.572;10.170;2024-03-08T00:44:12;14.40;;;7.45;;
50605;SDS011;36557;53.572;10.170;2024-03-08T00:46:38;16.33;;;7.38;;
50605;SDS011;36557;53.572;10.170;2024-03-08T00:49:04;13.20;;;6.80;;
50605;SDS011;36557;53.572;10.170;2024-03-08T00:51:31;16.00;;;7.72;;
50605;SDS011;36557;53.572;10.170;2024-03-08T00:53:57;13.10;;;6.57;;
50605;SDS011;36557;53.572;10.170;2024-03-08T00:56:23;15.23;;;7.20;;
50605;SDS011;36557;53.572;10.170;2024-03-08T00:58:50;19.95;;;7.90;;
50605;SDS011;36557;53.572;10.170;2024-03-08T01:03:43;15.50;;;7.05;;
50605;SDS011;36557;53.572;10.170;2024-03-08T01:06:09;18.17;;;8.27;;
50605;SDS011;36557;53.572;10.170;2024-03-08T01:08:34;16.60;;;6.85;;
50605;SDS011;36557;53.572;10.170;2024-03-08T01:11:03;18.02;;;7.75;;
50605;SDS011;36557;53.572;10.170;2024-03-08T01:15:55;15.25;;;6.38;;
50605;SDS011;36557;53.572;10.170;2024-03-08T01:18:23;17.17;;;7.43;;
50605;SDS011;36557;53.572;10.170;2024-03-08T01:23:14;14.77;;;6.32;;
50605;SDS011;36557;53.572;10.170;2024-03-08T01:25:40;15.98;;;6.80;;
50605;SDS011;36557;53.572;10.170;2024-03-08T01:28:06;19.40;;;7.40;;
50605;SDS011;36557;53.572;10.170;2024-03-08T01:30:32;17.88;;;6.97;;
50605;SDS011;36557;53.572;10.170;2024-03-08T01:32:59;18.25;;;7.97;;
50605;SDS011;36557;53.572;10.170;2024-03-08T01:35:25;14.15;;;6.70;;
50605;SDS011;36557;53.572;10.170;2024-03-08T01:37:52;16.05;;;7.68;;
50605;SDS011;36557;53.572;10.170;2024-03-08T01:40:18;13.73;;;5.82;;
50605;SDS011;36557;53.572;10.170;2024-03-08T01:42:44;17.02;;;7.30;;
50605;SDS011;36557;53.572;10.170;2024-03-08T01:45:10;13.38;;;6.72;;
50605;SDS011;36557;53.572;10.170;2024-03-08T01:47:36;15.45;;;7.15;;
50605;SDS011;36557;53.572;10.170;2024-03-08T01:50:02;14.45;;;7.13;;
50605;SDS011;36557;53.572;10.170;2024-03-08T01:52:29;16.42;;;7.72;;
50605;SDS011;36557;53.572;10.170;2024-03-08T01:54:57;15.02;;;7.15;;
50605;SDS011;36557;53.572;10.170;2024-03-08T01:57:28;14.65;;;7.32;;
50605;SDS011;36557;53.572;10.170;2024-03-08T01:59:55;13.85;;;7.32;;
50605;SDS011;36557;53.572;10.170;2024-03-08T02:02:21;18.63;;;8.50;;
50605;SDS011;36557;53.572;10.170;2024-03-08T02:04:48;16.65;;;6.88;;
50605;SDS011;36557;53.572;10.170;2024-03-08T02:07:14;16.98;;;7.18;;
50605;SDS011;36557;53.572;10.170;2024-03-08T02:09:39;18.42;;;7.47;;
50605;SDS011;36557;53.572;10.170;2024-03-08T02:12:05;14.25;;;7.05;;
50605;SDS011;36557;53.572;10.170;2024-03-08T02:14:33;14.68;;;6.97;;
50605;SDS011;36557;53.572;10.170;2024-03-08T02:17:01;18.08;;;7.47;;
50605;SDS011;36557;53.572;10.170;2024-03-08T02:19:27;15.93;;;7.07;;
50605;SDS011;36557;53.572;10.170;2024-03-08T02:21:53;13.43;;;6.45;;
50605;SDS011;36557;53.572;10.170;2024-03-08T02:24:19;13.95;;;6.60;;
50605;SDS011;36557;53.572;10.170;2024-03-08T02:26:44;17.88;;;7.10;;
50605;SDS011;36557;53.572;10.170;2024-03-08T02:29:11;20.25;;;7.80;;
50605;SDS011;36557;53.572;10.170;2024-03-08T02:31:37;17.73;;;7.03;;
50605;SDS011;36557;53.572;10.170;2024-03-08T02:34:04;18.20;;;7.80;;
50605;SDS011;36557;53.572;10.170;2024-03-08T02:36:30;14.43;;;6.90;;
50605;SDS011;36557;53.572;10.170;2024-03-08T02:38:59;16.00;;;7.10;;
50605;SDS011;36557;53.572;10.170;2024-03-08T02:41:27;17.38;;;7.63;;
50605;SDS011;36557;53.572;10.170;2024-03-08T02:43:52;19.05;;;7.82;;
50605;SDS011;36557;53.572;10.170;2024-03-08T02:46:18;13.55;;;6.22;;
50605;SDS011;36557;53.572;10.170;2024-03-08T02:48:44;18.88;;;7.57;;
50605;SDS011;36557;53.572;10.170;2024-03-08T02:51:09;20.13;;;7.55;;
50605;SDS011;36557;53.572;10.170;2024-03-08T02:53:35;16.88;;;7.47;;
50605;SDS011;36557;53.572;10.170;2024-03-08T02:56:02;15.93;;;7.07;;
50605;SDS011;36557;53.572;10.170;2024-03-08T02:58:29;16.85;;;7.57;;
50605;SDS011;36557;53.572;10.170;2024-03-08T03:00:55;19.55;;;7.57;;
50605;SDS011;36557;53.572;10.170;2024-03-08T03:03:22;16.17;;;7.03;;
50605;SDS011;36557;53.572;10.170;2024-03-08T03:05:48;15.85;;;7.07;;
50605;SDS011;36557;53.572;10.170;2024-03-08T03:08:14;16.88;;;7.88;;
50605;SDS011;36557;53.572;10.170;2024-03-08T03:10:42;18.70;;;7.57;;
50605;SDS011;36557;53.572;10.170;2024-03-08T03:13:08;16.67;;;7.32;;
50605;SDS011;36557;53.572;10.170;2024-03-08T03:15:33;18.40;;;7.15;;
50605;SDS011;36557;53.572;10.170;2024-03-08T03:17:59;17.35;;;6.78;;
50605;SDS011;36557;53.572;10.170;2024-03-08T03:20:25;19.15;;;7.95;;
50605;SDS011;36557;53.572;10.170;2024-03-08T03:22:57;15.65;;;7.25;;
50605;SDS011;36557;53.572;10.170;2024-03-08T03:25:23;16.63;;;7.10;;
50605;SDS011;36557;53.572;10.170;2024-03-08T03:27:51;16.55;;;7.55;;
50605;SDS011;36557;53.572;10.170;2024-03-08T03:30:17;18.85;;;7.07;;
50605;SDS011;36557;53.572;10.170;2024-03-08T03:32:46;14.32;;;7.10;;
50605;SDS011;36557;53.572;10.170;2024-03-08T03:35:13;18.17;;;7.53;;
50605;SDS011;36557;53.572;10.170;2024-03-08T03:37:42;14.85;;;7.00;;
50605;SDS011;36557;53.572;10.170;2024-03-08T03:40:16;16.35;;;7.47;;
50605;SDS011;36557;53.572;10.170;2024-03-08T03:42:44;18.17;;;8.20;;
50605;SDS011;36557;53.572;10.170;2024-03-08T03:45:10;18.75;;;7.57;;
50605;SDS011;36557;53.572;10.170;2024-03-08T03:47:36;14.85;;;6.25;;
50605;SDS011;36557;53.572;10.170;2024-03-08T03:50:03;15.18;;;7.03;;
50605;SDS011;36557;53.572;10.170;2024-03-08T03:52:30;15.00;;;6.95;;
50605;SDS011;36557;53.572;10.170;2024-03-08T03:54:56;16.85;;;8.15;;
50605;SDS011;36557;53.572;10.170;2024-03-08T03:57:22;16.58;;;6.93;;
50605;SDS011;36557;53.572;10.170;2024-03-08T03:59:48;19.02;;;7.40;;
50605;SDS011;36557;53.572;10.170;2024-03-08T04:02:13;21.30;;;8.40;;
50605;SDS011;36557;53.572;10.170;2024-03-08T04:04:39;17.27;;;7.22;;
50605;SDS011;36557;53.572;10.170;2024-03-08T04:07:05;15.20;;;6.93;;
50605;SDS011;36557;53.572;10.170;2024-03-08T04:09:31;18.58;;;7.63;;
50605;SDS011;36557;53.572;10.170;2024-03-08T04:11:57;19.58;;;7.22;;
50605;SDS011;36557;53.572;10.170;2024-03-08T04:14:23;16.80;;;6.97;;
50605;SDS011;36557;53.572;10.170;2024-03-08T04:16:48;19.08;;;8.40;;
50605;SDS011;36557;53.572;10.170;2024-03-08T04:19:14;17.88;;;7.32;;
50605;SDS011;36557;53.572;10.170;2024-03-08T04:21:40;18.73;;;7.35;;
50605;SDS011;36557;53.572;10.170;2024-03-08T04:24:07;15.80;;;7.13;;
50605;SDS011;36557;53.572;10.170;2024-03-08T04:26:34;18.55;;;7.35;;
50605;SDS011;36557;53.572;10.170;2024-03-08T04:28:59;17.40;;;7.35;;
50605;SDS011;36557;53.572;10.170;2024-03-08T04:31:25;16.25;;;7.30;;
50605;SDS011;36557;53.572;10.170;2024-03-08T04:33:51;18.83;;;7.63;;
50605;SDS011;36557;53.572;10.170;2024-03-08T04:36:18;16.70;;;6.63;;
50605;SDS011;36557;53.572;10.170;2024-03-08T04:38:44;16.10;;;7.20;;
50605;SDS011;36557;53.572;10.170;2024-03-08T04:41:10;18.40;;;7.20;;
50605;SDS011;36557;53.572;10.170;2024-03-08T04:43:36;14.70;;;6.85;;
50605;SDS011;36557;53.572;10.170;2024-03-08T04:46:02;15.85;;;7.25;;
50605;SDS011;36557;53.572;10.170;2024-03-08T04:48:28;13.75;;;5.60;;
50605;SDS011;36557;53.572;10.170;2024-03-08T04:50:54;13.98;;;6.78;;
50605;SDS011;36557;53.572;10.170;2024-03-08T04:53:20;20.27;;;8.48;;
50605;SDS011;36557;53.572;10.170;2024-03-08T04:55:46;21.88;;;7.68;;
50605;SDS011;36557;53.572;10.170;2024-03-08T04:58:12;18.23;;;7.18;;
50605;SDS011;36557;53.572;10.170;2024-03-08T05:00:37;18.55;;;7.82;;
50605;SDS011;36557;53.572;10.170;2024-03-08T05:03:03;18.70;;;7.75;;
50605;SDS011;36557;53.572;10.170;2024-03-08T05:05:29;16.40;;;6.70;;
50605;SDS011;36557;53.572;10.170;2024-03-08T05:07:56;22.05;;;8.32;;
50605;SDS011;36557;53.572;10.170;2024-03-08T05:10:21;18.02;;;7.28;;
50605;SDS011;36557;53.572;10.170;2024-03-08T05:12:47;16.40;;;7.00;;
50605;SDS011;36557;53.572;10.170;2024-03-08T05:15:13;14.93;;;6.82;;
50605;SDS011;36557;53.572;10.170;2024-03-08T05:17:39;17.45;;;7.45;;
50605;SDS011;36557;53.572;10.170;2024-03-08T05:20:05;16.27;;;7.45;;
50605;SDS011;36557;53.572;10.170;2024-03-08T05:22:36;16.27;;;7.88;;
50605;SDS011;36557;53.572;10.170;2024-03-08T05:25:02;16.25;;;8.52;;
50605;SDS011;36557;53.572;10.170;2024-03-08T05:27:27;18.23;;;7.20;;
50605;SDS011;36557;53.572;10.170;2024-03-08T05:29:53;17.30;;;7.18;;
50605;SDS011;36557;53.572;10.170;2024-03-08T05:32:19;16.15;;;7.05;;
50605;SDS011;36557;53.572;10.170;2024-03-08T05:34:45;18.67;;;7.07;;
50605;SDS011;36557;53.572;10.170;2024-03-08T05:37:10;18.38;;;7.68;;
50605;SDS011;36557;53.572;10.170;2024-03-08T05:39:36;15.90;;;7.13;;
50605;SDS011;36557;53.572;10.170;2024-03-08T05:42:02;19.63;;;8.57;;
50605;SDS011;36557;53.572;10.170;2024-03-08T05:44:27;18.42;;;8.10;;
50605;SDS011;36557;53.572;10.170;2024-03-08T05:46:56;16.45;;;7.22;;
50605;SDS011;36557;53.572;10.170;2024-03-08T05:49:22;16.27;;;7.72;;
50605;SDS011;36557;53.572;10.170;2024-03-08T05:51:49;17.30;;;8.05;;
50605;SDS011;36557;53.572;10.170;2024-03-08T05:54:16;14.55;;;6.55;;
50605;SDS011;36557;53.572;10.170;2024-03-08T05:56:42;16.85;;;8.15;;
50605;SDS011;36557;53.572;10.170;2024-03-08T05:59:08;19.27;;;8.02;;
50605;SDS011;36557;53.572;10.170;2024-03-08T06:01:34;20.77;;;7.72;;
50605;SDS011;36557;53.572;10.170;2024-03-08T06:04:01;20.30;;;7.90;;
50605;SDS011;36557;53.572;10.170;2024-03-08T06:06:27;19.20;;;8.32;;
50605;SDS011;36557;53.572;10.170;2024-03-08T06:08:53;18.80;;;7.88;;
50605;SDS011;36557;53.572;10.170;2024-03-08T06:11:21;20.27;;;7.95;;
50605;SDS011;36557;53.572;10.170;2024-03-08T06:13:47;17.77;;;8.30;;
50605;SDS011;36557;53.572;10.170;2024-03-08T06:16:14;22.85;;;7.70;;
50605;SDS011;36557;53.572;10.170;2024-03-08T06:18:40;16.63;;;7.30;;
50605;SDS011;36557;53.572;10.170;2024-03-08T06:21:06;18.30;;;7.88;;
50605;SDS011;36557;53.572;10.170;2024-03-08T06:23:34;19.13;;;8.57;;
50605;SDS011;36557;53.572;10.170;2024-03-08T06:26:03;18.63;;;8.38;;
50605;SDS011;36557;53.572;10.170;2024-03-08T06:28:29;22.35;;;9.23;;
50605;SDS011;36557;53.572;10.170;2024-03-08T06:30:55;22.13;;;8.20;;
50605;SDS011;36557;53.572;10.170;2024-03-08T06:33:21;22.08;;;8.75;;
50605;SDS011;36557;53.572;10.170;2024-03-08T06:35:46;17.92;;;8.90;;
50605;SDS011;36557;53.572;10.170;2024-03-08T06:38:12;18.40;;;8.02;;
50605;SDS011;36557;53.572;10.170;2024-03-08T06:40:40;22.75;;;9.20;;
50605;SDS011;36557;53.572;10.170;2024-03-08T06:43:06;18.65;;;6.75;;
50605;SDS011;36557;53.572;10.170;2024-03-08T06:45:32;19.65;;;7.82;;
50605;SDS011;36557;53.572;10.170;2024-03-08T06:47:57;19.90;;;7.57;;
50605;SDS011;36557;53.572;10.170;2024-03-08T06:50:23;23.63;;;9.05;;
50605;SDS011;36557;53.572;10.170;2024-03-08T06:52:49;20.70;;;8.85;;
50605;SDS011;36557;53.572;10.170;2024-03-08T06:55:18;21.25;;;9.23;;
50605;SDS011;36557;53.572;10.170;2024-03-08T06:57:47;19.48;;;7.82;;
50605;SDS011;36557;53.572;10.170;2024-03-08T07:00:13;20.75;;;7.93;;
50605;SDS011;36557;53.572;10.170;2024-03-08T07:02:43;25.55;;;9.93;;
50605;SDS011;36557;53.572;10.170;2024-03-08T07:05:14;22.75;;;9.27;;
50605;SDS011;36557;53.572;10.170;2024-03-08T07:07:41;22.27;;;9.35;;
50605;SDS011;36557;53.572;10.170;2024-03-08T07:10:08;17.77;;;7.68;;
50605;SDS011;36557;53.572;10.170;2024-03-08T07:12:36;20.38;;;8.60;;
50605;SDS011;36557;53.572;10.170;2024-03-08T07:15:03;19.33;;;8.85;;
50605;SDS011;36557;53.572;10.170;2024-03-08T07:17:30;17.13;;;6.10;;
50605;SDS011;36557;53.572;10.170;2024-03-08T07:19:59;19.98;;;9.25;;
50605;SDS011;36557;53.572;10.170;2024-03-08T07:22:32;23.02;;;9.07;;
50605;SDS011;36557;53.572;10.170;2024-03-08T07:24:58;21.15;;;9.25;;
50605;SDS011;36557;53.572;10.170;2024-03-08T07:27:29;18.63;;;8.63;;
50605;SDS011;36557;53.572;10.170;2024-03-08T07:29:55;22.13;;;10.27;;
50605;SDS011;36557;53.572;10.170;2024-03-08T07:32:22;15.98;;;7.82;;
50605;SDS011;36557;53.572;10.170;2024-03-08T07:34:50;18.83;;;8.05;;
50605;SDS011;36557;53.572;10.170;2024-03-08T07:37:16;28.35;;;11.00;;
50605;SDS011;36557;53.572;10.170;2024-03-08T07:39:43;21.20;;;8.95;;
50605;SDS011;36557;53.572;10.170;2024-03-08T07:42:08;20.20;;;9.20;;
50605;SDS011;36557;53.572;10.170;2024-03-08T07:44:35;25.58;;;10.85;;
50605;SDS011;36557;53.572;10.170;2024-03-08T07:47:01;23.10;;;9.43;;
50605;SDS011;36557;53.572;10.170;2024-03-08T07:49:28;24.77;;;8.90;;
50605;SDS011;36557;53.572;10.170;2024-03-08T07:51:55;21.67;;;10.02;;
50605;SDS011;36557;53.572;10.170;2024-03-08T07:54:21;22.33;;;10.40;;
50605;SDS011;36557;53.572;10.170;2024-03-08T07:56:47;23.45;;;9.45;;
50605;SDS011;36557;53.572;10.170;2024-03-08T07:59:12;24.95;;;9.43;;
50605;SDS011;36557;53.572;10.170;2024-03-08T08:01:38;23.25;;;11.13;;
50605;SDS011;36557;53.572;10.170;2024-03-08T08:04:04;25.35;;;10.07;;
50605;SDS011;36557;53.572;10.170;2024-03-08T08:06:30;23.80;;;9.88;;
50605;SDS011;36557;53.572;10.170;2024-03-08T08:08:59;16.92;;;7.80;;
50605;SDS011;36557;53.572;10.170;2024-03-08T08:11:28;24.98;;;10.30;;
50605;SDS011;36557;53.572;10.170;2024-03-08T08:13:54;26.17;;;10.57;;
50605;SDS011;36557;53.572;10.170;2024-03-08T08:16:22;23.92;;;10.00;;
50605;SDS011;36557;53.572;10.170;2024-03-08T08:18:48;20.65;;;8.68;;
50605;SDS011;36557;53.572;10.170;2024-03-08T08:21:15;25.52;;;10.23;;
50605;SDS011;36557;53.572;10.170;2024-03-08T08:23:40;23.83;;;10.27;;
50605;SDS011;36557;53.572;10.170;2024-03-08T08:26:06;25.85;;;10.35;;
50605;SDS011;36557;53.572;10.170;2024-03-08T08:28:32;15.32;;;5.93;;
50605;SDS011;36557;53.572;10.170;2024-03-08T08:30:58;25.33;;;10.40;;
50605;SDS011;36557;53.572;10.170;2024-03-08T08:33:24;24.77;;;10.30;;
50605;SDS011;36557;53.572;10.170;2024-03-08T08:35:50;25.50;;;10.63;;
50605;SDS011;36557;53.572;10.170;2024-03-08T08:38:18;23.20;;;10.65;;
50605;SDS011;36557;53.572;10.170;2024-03-08T08:40:45;22.48;;;9.52;;
50605;SDS011;36557;53.572;10.170;2024-03-08T08:43:12;24.33;;;10.63;;
50605;SDS011;36557;53.572;10.170;2024-03-08T08:45:39;22.90;;;11.90;;
50605;SDS011;36557;53.572;10.170;2024-03-08T08:48:05;22.58;;;10.15;;
50605;SDS011;36557;53.572;10.170;2024-03-08T08:50:31;29.52;;;11.38;;
50605;SDS011;36557;53.572;10.170;2024-03-08T08:52:57;26.55;;;10.85;;
50605;SDS011;36557;53.572;10.170;2024-03-08T08:55:23;24.30;;;10.48;;
50605;SDS011;36557;53.572;10.170;2024-03-08T09:02:47;19.65;;;9.77;;
50605;SDS011;36557;53.572;10.170;2024-03-08T09:05:16;21.98;;;11.18;;
50605;SDS011;36557;53.572;10.170;2024-03-08T09:07:42;25.98;;;10.90;;
50605;SDS011;36557;53.572;10.170;2024-03-08T09:10:11;21.88;;;10.57;;
50605;SDS011;36557;53.572;10.170;2024-03-08T09:12:39;18.05;;;9.45;;
50605;SDS011;36557;53.572;10.170;2024-03-08T09:15:06;19.85;;;10.13;;
50605;SDS011;36557;53.572;10.170;2024-03-08T09:17:42;24.17;;;10.98;;
50605;SDS011;36557;53.572;10.170;2024-03-08T09:20:09;23.63;;;11.10;;
50605;SDS011;36557;53.572;10.170;2024-03-08T09:22:39;22.42;;;9.65;;
50605;SDS011;36557;53.572;10.170;2024-03-08T09:25:05;22.20;;;10.65;;
50605;SDS011;36557;53.572;10.170;2024-03-08T09:27:32;18.52;;;8.52;;
50605;SDS011;36557;53.572;10.170;2024-03-08T09:29:59;17.65;;;7.28;;
50605;SDS011;36557;53.572;10.170;2024-03-08T09:32:26;19.40;;;8.85;;
50605;SDS011;36557;53.572;10.170;2024-03-08T09:34:52;21.15;;;10.00;;
50605;SDS011;36557;53.572;10.170;2024-03-08T09:37:18;20.70;;;9.98;;
50605;SDS011;36557;53.572;10.170;2024-03-08T09:39:44;16.98;;;7.85;;
50605;SDS011;36557;53.572;10.170;2024-03-08T09:42:11;15.48;;;7.45;;
50605;SDS011;36557;53.572;10.170;2024-03-08T09:44:46;18.92;;;8.88;;
50605;SDS011;36557;53.572;10.170;2024-03-08T09:47:13;19.63;;;8.90;;
50605;SDS011;36557;53.572;10.170;2024-03-08T09:52:06;23.98;;;11.23;;
50605;SDS011;36557;53.572;10.170;2024-03-08T09:54:32;21.70;;;10.93;;
50605;SDS011;36557;53.572;10.170;2024-03-08T09:56:58;22.63;;;10.32;;
50605;SDS011;36557;53.572;10.170;2024-03-08T09:59:25;18.35;;;9.10;;
50605;SDS011;36557;53.572;10.170;2024-03-08T10:01:51;21.45;;;9.27;;
50605;SDS011;36557;53.572;10.170;2024-03-08T10:06:43;20.38;;;8.93;;
50605;SDS011;36557;53.572;10.170;2024-03-08T10:09:09;19.83;;;9.18;;
50605;SDS011;36557;53.572;10.170;2024-03-08T10:11:36;17.50;;;8.32;;
50605;SDS011;36557;53.572;10.170;2024-03-08T10:14:04;20.90;;;10.70;;
50605;SDS011;36557;53.572;10.170;2024-03-08T10:16:31;21.30;;;9.32;;
50605;SDS011;36557;53.572;10.170;2024-03-08T10:18:57;16.58;;;8.70;;
50605;SDS011;36557;53.572;10.170;2024-03-08T10:21:25;15.30;;;7.45;;
50605;SDS011;36557;53.572;10.170;2024-03-08T10:23:51;20.02;;;9.52;;
50605;SDS011;36557;53.572;10.170;2024-03-08T10:26:17;22.05;;;10.13;;
50605;SDS011;36557;53.572;10.170;2024-03-08T10:28:46;18.50;;;10.18;;
50605;SDS011;36557;53.572;10.170;2024-03-08T10:31:13;12.93;;;6.80;;
50605;SDS011;36557;53.572;10.170;2024-03-08T10:33:40;17.58;;;9.73;;
50605;SDS011;36557;53.572;10.170;2024-03-08T10:36:09;19.75;;;9.18;;
50605;SDS011;36557;53.572;10.170;2024-03-08T10:38:36;20.23;;;8.85;;
50605;SDS011;36557;53.572;10.170;2024-03-08T10:43:32;19.30;;;10.13;;
50605;SDS011;36557;53.572;10.170;2024-03-08T10:46:12;19.55;;;10.05;;
50605;SDS011;36557;53.572;10.170;2024-03-08T10:48:43;14.95;;;7.43;;
50605;SDS011;36557;53.572;10.170;2024-03-08T10:51:11;18.10;;;8.68;;
50605;SDS011;36557;53.572;10.170;2024-03-08T10:53:37;22.77;;;10.63;;
50605;SDS011;36557;53.572;10.170;2024-03-08T10:56:06;17.00;;;9.00;;
50605;SDS011;36557;53.572;10.170;2024-03-08T10:58:34;16.08;;;7.70;;
50605;SDS011;36557;53.572;10.170;2024-03-08T11:01:01;18.05;;;8.98;;
50605;SDS011;36557;53.572;10.170;2024-03-08T11:06:07;18.05;;;9.07;;
50605;SDS011;36557;53.572;10.170;2024-03-08T11:08:35;14.88;;;8.23;;
50605;SDS011;36557;53.572;10.170;2024-03-08T11:11:01;16.70;;;9.10;;
50605;SDS011;36557;53.572;10.170;2024-03-08T11:15:59;16.38;;;8.38;;
50605;SDS011;36557;53.572;10.170;2024-03-08T11:18:26;15.27;;;8.82;;
50605;SDS011;36557;53.572;10.170;2024-03-08T11:20:55;18.65;;;8.98;;
50605;SDS011;36557;53.572;10.170;2024-03-08T11:23:22;18.20;;;9.07;;
50605;SDS011;36557;53.572;10.170;2024-03-08T11:25:51;16.92;;;8.55;;
50605;SDS011;36557;53.572;10.170;2024-03-08T11:28:21;19.55;;;9.38;;
50605;SDS011;36557;53.572;10.170;2024-03-08T11:33:27;13.85;;;8.07;;
50605;SDS011;36557;53.572;10.170;2024-03-08T11:36:19;17.98;;;8.70;;
50605;SDS011;36557;53.572;10.170;2024-03-08T11:38:43;16.00;;;8.20;;
50605;SDS011;36557;53.572;10.170;2024-03-08T11:41:09;14.93;;;7.78;;
50605;SDS011;36557;53.572;10.170;2024-03-08T11:43:39;15.88;;;8.10;;
50605;SDS011;36557;53.572;10.170;2024-03-08T11:46:13;19.33;;;9.23;;
50605;SDS011;36557;53.572;10.170;2024-03-08T11:48:39;16.50;;;8.95;;
50605;SDS011;36557;53.572;10.170;2024-03-08T11:51:09;14.52;;;7.00;;
50605;SDS011;36557;53.572;10.170;2024-03-08T11:53:36;15.32;;;8.30;;
50605;SDS011;36557;53.572;10.170;2024-03-08T11:56:12;17.42;;;9.10;;
50605;SDS011;36557;53.572;10.170;2024-03-08T11:58:39;23.00;;;9.45;;
50605;SDS011;36557;53.572;10.170;2024-03-08T12:01:09;14.57;;;7.90;;
50605;SDS011;36557;53.572;10.170;2024-03-08T12:03:39;15.45;;;7.65;;
50605;SDS011;36557;53.572;10.170;2024-03-08T12:06:07;15.75;;;8.18;;
50605;SDS011;36557;53.572;10.170;2024-03-08T12:08:35;16.00;;;8.35;;
50605;SDS011;36557;53.572;10.170;2024-03-08T12:11:03;17.73;;;8.43;;
50605;SDS011;36557;53.572;10.170;2024-03-08T12:13:33;16.48;;;7.65;;
50605;SDS011;36557;53.572;10.170;2024-03-08T12:16:03;14.88;;;8.38;;
50605;SDS011;36557;53.572;10.170;2024-03-08T12:18:32;15.75;;;8.30;;
50605;SDS011;36557;53.572;10.170;2024-03-08T12:21:06;17.95;;;9.07;;
50605;SDS011;36557;53.572;10.170;2024-03-08T12:24:03;16.02;;;9.13;;
50605;SDS011;36557;53.572;10.170;2024-03-08T12:26:30;15.02;;;8.18;;
50605;SDS011;36557;53.572;10.170;2024-03-08T12:29:13;17.52;;;8.35;;
50605;SDS011;36557;53.572;10.170;2024-03-08T12:31:42;14.90;;;7.47;;
50605;SDS011;36557;53.572;10.170;2024-03-08T12:34:08;14.77;;;7.90;;
50605;SDS011;36557;53.572;10.170;2024-03-08T12:36:35;14.75;;;7.97;;
50605;SDS011;36557;53.572;10.170;2024-03-08T12:39:01;15.52;;;7.53;;
50605;SDS011;36557;53.572;10.170;2024-03-08T12:41:30;13.73;;;7.40;;
50605;SDS011;36557;53.572;10.170;2024-03-08T12:43:57;14.02;;;7.55;;
50605;SDS011;36557;53.572;10.170;2024-03-08T12:46:23;14.80;;;8.02;;
50605;SDS011;36557;53.572;10.170;2024-03-08T12:48:55;13.38;;;7.03;;
50605;SDS011;36557;53.572;10.170;2024-03-08T12:51:21;15.18;;;8.70;;
50605;SDS011;36557;53.572;10.170;2024-03-08T12:53:47;13.07;;;7.63;;
50605;SDS011;36557;53.572;10.170;2024-03-08T12:56:19;14.13;;;7.97;;
50605;SDS011;36557;53.572;10.170;2024-03-08T12:58:47;15.80;;;7.95;;
50605;SDS011;36557;53.572;10.170;2024-03-08T13:01:13;15.27;;;8.02;;
50605;SDS011;36557;53.572;10.170;2024-03-08T13:03:40;14.43;;;7.95;;
50605;SDS011;36557;53.572;10.170;2024-03-08T13:06:08;16.83;;;7.85;;
50605;SDS011;36557;53.572;10.170;2024-03-08T13:08:35;14.60;;;6.78;;
50605;SDS011;36557;53.572;10.170;2024-03-08T13:28:09;16.48;;;7.82;;
50605;SDS011;36557;53.572;10.170;2024-03-08T13:30:36;21.80;;;10.40;;
50605;SDS011;36557;53.572;10.170;2024-03-08T13:33:02;22.17;;;10.43;;
50605;SDS011;36557;53.572;10.170;2024-03-08T13:35:32;16.23;;;7.88;;
50605;SDS011;36557;53.572;10.170;2024-03-08T13:42:56;14.68;;;7.45;;
50605;SDS011;36557;53.572;10.170;2024-03-08T13:45:22;15.55;;;7.18;;
50605;SDS011;36557;53.572;10.170;2024-03-08T13:47:49;12.70;;;6.93;;
50605;SDS011;36557;53.572;10.170;2024-03-08T13:50:18;12.48;;;6.82;;
50605;SDS011;36557;53.572;10.170;2024-03-08T13:52:47;12.10;;;6.72;;
50605;SDS011;36557;53.572;10.170;2024-03-08T13:55:19;11.80;;;6.68;;
50605;SDS011;36557;53.572;10.170;2024-03-08T13:57:47;13.88;;;7.63;;
50605;SDS011;36557;53.572;10.170;2024-03-08T14:00:13;13.57;;;5.65;;
50605;SDS011;36557;53.572;10.170;2024-03-08T14:02:40;13.38;;;7.55;;
50605;SDS011;36557;53.572;10.170;2024-03-08T14:05:06;13.10;;;6.47;;
50605;SDS011;36557;53.572;10.170;2024-03-08T14:07:34;12.38;;;6.60;;
50605;SDS011;36557;53.572;10.170;2024-03-08T14:10:00;12.57;;;6.55;;
50605;SDS011;36557;53.572;10.170;2024-03-08T14:12:26;12.15;;;6.63;;
50605;SDS011;36557;53.572;10.170;2024-03-08T14:14:53;14.77;;;7.35;;
50605;SDS011;36557;53.572;10.170;2024-03-08T14:17:19;13.20;;;7.28;;
50605;SDS011;36557;53.572;10.170;2024-03-08T14:19:45;11.07;;;5.50;;
50605;SDS011;36557;53.572;10.170;2024-03-08T14:22:11;13.73;;;6.05;;
50605;SDS011;36557;53.572;10.170;2024-03-08T14:24:39;15.40;;;7.22;;
50605;SDS011;36557;53.572;10.170;2024-03-08T14:27:07;12.63;;;7.22;;
50605;SDS011;36557;53.572;10.170;2024-03-08T14:29:34;13.05;;;6.53;;
50605;SDS011;36557;53.572;10.170;2024-03-08T14:32:00;11.82;;;5.93;;
50605;SDS011;36557;53.572;10.170;2024-03-08T14:34:28;13.95;;;7.45;;
50605;SDS011;36557;53.572;10.170;2024-03-08T14:36:55;12.10;;;6.38;;
50605;SDS011;36557;53.572;10.170;2024-03-08T14:39:21;14.68;;;7.50;;
50605;SDS011;36557;53.572;10.170;2024-03-08T14:41:51;14.88;;;7.78;;
50605;SDS011;36557;53.572;10.170;2024-03-08T14:44:21;18.98;;;8.52;;
50605;SDS011;36557;53.572;10.170;2024-03-08T14:46:55;16.77;;;8.20;;
50605;SDS011;36557;53.572;10.170;2024-03-08T14:49:24;13.82;;;7.50;;
50605;SDS011;36557;53.572;10.170;2024-03-08T14:51:54;17.50;;;7.97;;
50605;SDS011;36557;53.572;10.170;2024-03-08T14:54:20;15.57;;;7.78;;
50605;SDS011;36557;53.572;10.170;2024-03-08T14:56:48;16.75;;;7.45;;
50605;SDS011;36557;53.572;10.170;2024-03-08T14:59:17;17.08;;;7.70;;
50605;SDS011;36557;53.572;10.170;2024-03-08T15:01:44;20.50;;;9.05;;
50605;SDS011;36557;53.572;10.170;2024-03-08T15:04:10;15.52;;;8.85;;
50605;SDS011;36557;53.572;10.170;2024-03-08T15:06:42;16.10;;;7.88;;
50605;SDS011;36557;53.572;10.170;2024-03-08T15:09:11;19.42;;;9.85;;